Pires Coelho — CUPM6 — position and weather

sailwx.info

Track history (hours):
 
Tides and Currents Weather Stations Pressure Air Temp Water Temp Dewpoint Dewpoint Depression Visibility Wind Speed Wind Dir Waves Ship Positions

Pires Coelho

Last reported at 2014-Oct-19 08:33 UTC. Time now 2014-Oct-26 07:44 UTC.
Position N 37°08' W 008°32'.

Length 27 m.

Type: Ship. MMSI: 263236000.

Date/timePositionNaut miles runAvg speedWind from/ knotsBaromVisibWave heightAir tempDewpointWater temp
2014-Oct-19 08:33N 37°08' W 008°32'0 0.0
2014-Oct-19 07:26N 37°08' W 008°32'0 0.0
2014-Oct-19 06:20N 37°08' W 008°32'0 0.0
2014-Oct-19 05:33N 37°08' W 008°32'0 0.0
2014-Oct-19 04:31N 37°08' W 008°32'0 0.0
2014-Oct-19 03:26N 37°08' W 008°32'0 0.0
2014-Oct-19 02:29N 37°08' W 008°32'0 0.0
2014-Oct-19 01:30N 37°08' W 008°32'0 0.0
2014-Oct-19 00:33N 37°08' W 008°32'0 0.0
2014-Oct-18 23:32N 37°08' W 008°32'0 0.0
2014-Oct-18 22:32N 37°08' W 008°32'0 0.0
2014-Oct-18 21:33N 37°08' W 008°32'0 0.0
2014-Oct-18 20:31N 37°08' W 008°32'0 0.0
2014-Oct-18 19:31N 37°08' W 008°32'0 0.0
2014-Oct-18 18:26N 37°08' W 008°32'0 0.0
2014-Oct-18 17:33N 37°08' W 008°32'0 0.0
2014-Oct-18 16:33N 37°08' W 008°32'0 0.0
2014-Oct-18 15:31N 37°08' W 008°32'0 0.0
2014-Oct-18 14:31N 37°08' W 008°32'0 0.0
2014-Oct-18 13:19N 37°08' W 008°32'0 0.0
2014-Oct-18 12:32N 37°08' W 008°32'0 0.0
2014-Oct-18 11:23N 37°08' W 008°32'0 0.0
2014-Oct-18 10:24N 37°08' W 008°32'2 2.4
2014-Oct-18 09:33N 37°06' W 008°31'9 8.9
2014-Oct-18 08:33N 37°02' W 008°22'10 9.7
2014-Oct-18 07:33N 36°57' W 008°11'11 1.9
2014-Oct-18 01:33N 36°48' W 008°02'3 3.1
2014-Oct-18 00:33N 36°49' W 007°59'9 1.7
2014-Oct-17 19:29N 36°47' W 008°09'2 2.4
2014-Oct-17 18:31N 36°49' W 008°11'3 3.0
2014-Oct-17 17:27N 36°50' W 008°07'3 3.0
2014-Oct-17 16:34N 36°51' W 008°04'3 3.0
2014-Oct-17 15:30N 36°51' W 007°60'5 1.2
2014-Oct-17 11:31N 36°50' W 008°05'3 2.5
2014-Oct-17 10:30N 36°49' W 008°08'3 2.3
2014-Oct-17 09:12N 36°50' W 008°05'2 2.9
2014-Oct-17 08:31N 36°50' W 008°03'3 3.1
2014-Oct-17 07:33N 36°51' W 007°59'3 3.0
2014-Oct-17 06:30N 36°52' W 007°55'6 1.2
2014-Oct-17 01:32N 36°49' W 008°02'4 0.5
2014-Oct-16 16:33N 36°49' W 008°07'1 1.3
2014-Oct-16 15:30N 36°49' W 008°08'4 3.0
2014-Oct-16 14:05N 36°50' W 008°03'3 0.6
2014-Oct-16 09:31N 36°53' W 008°05'2 2.5
2014-Oct-16 08:33N 36°51' W 008°03'3 3.0
2014-Oct-16 07:32N 36°51' W 007°60'11 2.6
2014-Oct-16 03:29N 36°50' W 008°13'2 2.2
2014-Oct-16 02:33N 36°50' W 008°15'3 3.0
2014-Oct-16 01:31N 36°51' W 008°19'3 2.9
2014-Oct-16 00:33N 36°52' W 008°22'3 2.9
2014-Oct-15 23:34N 36°53' W 008°26'3 3.1
2014-Oct-15 22:34N 36°54' W 008°30'10 9.6
2014-Oct-15 21:33N 37°03' W 008°31'5 4.6
2014-Oct-15 20:31N 37°08' W 008°32'0 0.0
2014-Oct-15 19:31N 37°08' W 008°32'0 0.0
2014-Oct-15 18:31N 37°08' W 008°32'0 0.1
2014-Oct-15 17:25N 37°08' W 008°32'0 0.0
2014-Oct-15 16:28N 37°08' W 008°32'0 0.0
2014-Oct-15 15:27N 37°08' W 008°32'8 9.2
2014-Oct-15 14:33N 36°60' W 008°32'9 9.4
2014-Oct-15 13:33N 36°50' W 008°35'2 2.3
2014-Oct-15 12:33N 36°51' W 008°37'3 2.8
2014-Oct-15 11:33N 36°51' W 008°41'3 2.3
2014-Oct-15 10:28N 36°52' W 008°44'1 0.7
2014-Oct-15 09:34N 36°52' W 008°44'3 2.8
2014-Oct-15 08:33N 36°51' W 008°41'3 2.2
2014-Oct-15 07:09N 36°51' W 008°37'2 2.9
2014-Oct-15 06:34N 36°51' W 008°35'4 4.1
2014-Oct-15 05:32N 36°52' W 008°29'9 9.1
2014-Oct-15 04:32N 36°53' W 008°18'10 9.8
2014-Oct-15 03:33N 36°54' W 008°06'14 9.8
2014-Oct-15 02:05N 36°56' W 007°48'  
2014-Oct-12 14:29N 36°49' W 008°09'2 2.2
2014-Oct-12 13:33N 36°49' W 008°11'3 3.0
2014-Oct-12 12:26N 36°50' W 008°15'4 3.0
2014-Oct-12 11:12N 36°50' W 008°20'2 3.0
2014-Oct-12 10:32N 36°50' W 008°22'1 0.9
2014-Oct-12 09:23N 36°49' W 008°22'2 2.9
2014-Oct-12 08:33N 36°49' W 008°19'3 2.9
2014-Oct-12 07:32N 36°49' W 008°15'3 3.0
2014-Oct-12 06:33N 36°49' W 008°11'7 3.7
2014-Oct-12 04:33N 36°51' W 008°20'5 4.7
2014-Oct-12 03:34N 36°52' W 008°26'3 3.2
2014-Oct-12 02:33N 36°51' W 008°22'3 3.2
2014-Oct-12 01:34N 36°50' W 008°18'3 3.1
2014-Oct-12 00:33N 36°50' W 008°14'2 2.3
2014-Oct-11 23:33N 36°50' W 008°12'4 3.0
2014-Oct-11 22:20N 36°50' W 008°16'3 3.1
2014-Oct-11 21:27N 36°51' W 008°20'3 2.9
2014-Oct-11 20:25N 36°52' W 008°23'3 3.0
2014-Oct-11 19:33N 36°53' W 008°26'3 3.0
2014-Oct-11 18:31N 36°55' W 008°29'1 0.7
2014-Oct-11 17:33N 36°54' W 008°30'3 3.0
2014-Oct-11 16:34N 36°52' W 008°33'3 2.7
2014-Oct-11 15:31N 36°50' W 008°35'1 0.9
2014-Oct-11 14:34N 36°50' W 008°36'6 2.9
2014-Oct-11 12:33N 36°51' W 008°43'2 1.7
2014-Oct-11 11:16N 36°51' W 008°46'2 1.8
2014-Oct-11 10:22N 36°52' W 008°44'2 2.7
2014-Oct-11 09:32N 36°51' W 008°41'3 2.9
2014-Oct-11 08:33N 36°52' W 008°38'3 2.6
2014-Oct-11 07:33N 36°50' W 008°36'6 4.6
2014-Oct-11 06:16N 36°52' W 008°29'3 3.8
2014-Oct-11 05:33N 36°52' W 008°26'3 3.0
2014-Oct-11 04:33N 36°51' W 008°22'3 3.0
2014-Oct-11 03:33N 36°51' W 008°19'3 2.8
2014-Oct-11 02:27N 36°52' W 008°22'3 2.9
2014-Oct-11 01:33N 36°53' W 008°25'3 3.0
2014-Oct-11 00:33N 36°54' W 008°28'1 0.7
2014-Oct-10 23:33N 36°54' W 008°28'3 2.9
2014-Oct-10 22:34N 36°53' W 008°24'2 2.1
2014-Oct-10 21:34N 36°53' W 008°21'3 3.0
2014-Oct-10 20:33N 36°53' W 008°25'3 2.9
2014-Oct-10 19:31N 36°54' W 008°29'5 5.7
2014-Oct-10 18:33N 36°51' W 008°35'3 2.6
2014-Oct-10 17:31N 36°51' W 008°38'3 2.8
2014-Oct-10 16:33N 36°51' W 008°42'2 1.6
2014-Oct-10 15:33N 36°51' W 008°44'3 2.9
2014-Oct-10 14:34N 36°51' W 008°40'2 2.2
2014-Oct-10 13:32N 36°53' W 008°38'2 1.9
2014-Oct-10 12:33N 36°51' W 008°40'3 2.8
2014-Oct-10 11:33N 36°51' W 008°43'2 1.6
2014-Oct-10 10:32N 36°53' W 008°44'2 1.6
2014-Oct-10 09:33N 36°51' W 008°43'4 2.7
2014-Oct-10 08:11N 36°52' W 008°38'2 2.7
2014-Oct-10 07:22N 36°50' W 008°37'2 2.8
2014-Oct-10 06:34N 36°51' W 008°34'2 1.5
2014-Oct-10 05:29N 36°52' W 008°33'4 3.8
2014-Oct-10 04:33N 36°55' W 008°32'9 8.8
2014-Oct-10 03:33N 37°04' W 008°32'4 3.4
2014-Oct-10 02:27N 37°08' W 008°32'0 0.0
2014-Oct-10 01:27N 37°08' W 008°32'0 0.0
2014-Oct-10 00:30N 37°08' W 008°32'0 0.0
2014-Oct-09 23:26N 37°08' W 008°32'0 0.0
2014-Oct-09 22:20N 37°08' W 008°32'0 0.0
2014-Oct-09 21:32N 37°08' W 008°32'0 0.1
2014-Oct-09 20:23N 37°08' W 008°32'0 0.0
2014-Oct-09 19:33N 37°08' W 008°32'9 9.2
2014-Oct-09 18:33N 36°59' W 008°35'9 9.2
2014-Oct-09 17:31N 36°51' W 008°41'2 2.0
2014-Oct-09 16:33N 36°51' W 008°39'3 2.8
2014-Oct-09 15:34N 36°51' W 008°35'1 1.0
2014-Oct-09 14:34N 36°51' W 008°34'2 2.3
2014-Oct-09 13:33N 36°51' W 008°37'2 2.2
2014-Oct-09 12:34N 36°52' W 008°39'3 2.7
2014-Oct-09 11:33N 36°51' W 008°42'1 1.3
2014-Oct-09 10:32N 36°51' W 008°44'2 2.2
2014-Oct-09 09:34N 36°51' W 008°41'3 2.7
2014-Oct-09 08:34N 36°52' W 008°38'  
Track history (hours):
 
Tides and Currents Weather Stations Pressure Air Temp Water Temp Dewpoint Dewpoint Depression Visibility Wind Speed Wind Dir Waves Ship Positions

Pires Coelho

Last reported at 2014-Oct-19 08:33 UTC. Time now 2014-Oct-26 07:44 UTC.
Position N 37°08' W 008°32'.

Length 27 m.

Type: Ship. MMSI: 263236000.

Date/timePositionNaut miles runAvg speedWind from/ knotsBaromVisibWave heightAir tempDewpointWater temp
2014-Oct-19 08:33N 37°08' W 008°32'0 0.0
2014-Oct-19 07:26N 37°08' W 008°32'0 0.0
2014-Oct-19 06:20N 37°08' W 008°32'0 0.0
2014-Oct-19 05:33N 37°08' W 008°32'0 0.0
2014-Oct-19 04:31N 37°08' W 008°32'0 0.0
2014-Oct-19 03:26N 37°08' W 008°32'0 0.0
2014-Oct-19 02:29N 37°08' W 008°32'0 0.0
2014-Oct-19 01:30N 37°08' W 008°32'0 0.0
2014-Oct-19 00:33N 37°08' W 008°32'0 0.0
2014-Oct-18 23:32N 37°08' W 008°32'0 0.0
2014-Oct-18 22:32N 37°08' W 008°32'0 0.0
2014-Oct-18 21:33N 37°08' W 008°32'0 0.0
2014-Oct-18 20:31N 37°08' W 008°32'0 0.0
2014-Oct-18 19:31N 37°08' W 008°32'0 0.0
2014-Oct-18 18:26N 37°08' W 008°32'0 0.0
2014-Oct-18 17:33N 37°08' W 008°32'0 0.0
2014-Oct-18 16:33N 37°08' W 008°32'0 0.0
2014-Oct-18 15:31N 37°08' W 008°32'0 0.0
2014-Oct-18 14:31N 37°08' W 008°32'0 0.0
2014-Oct-18 13:19N 37°08' W 008°32'0 0.0
2014-Oct-18 12:32N 37°08' W 008°32'0 0.0
2014-Oct-18 11:23N 37°08' W 008°32'0 0.0
2014-Oct-18 10:24N 37°08' W 008°32'2 2.4
2014-Oct-18 09:33N 37°06' W 008°31'9 8.9
2014-Oct-18 08:33N 37°02' W 008°22'10 9.7
2014-Oct-18 07:33N 36°57' W 008°11'11 1.9
2014-Oct-18 01:33N 36°48' W 008°02'3 3.1
2014-Oct-18 00:33N 36°49' W 007°59'9 1.7
2014-Oct-17 19:29N 36°47' W 008°09'2 2.4
2014-Oct-17 18:31N 36°49' W 008°11'3 3.0
2014-Oct-17 17:27N 36°50' W 008°07'3 3.0
2014-Oct-17 16:34N 36°51' W 008°04'3 3.0
2014-Oct-17 15:30N 36°51' W 007°60'5 1.2
2014-Oct-17 11:31N 36°50' W 008°05'3 2.5
2014-Oct-17 10:30N 36°49' W 008°08'3 2.3
2014-Oct-17 09:12N 36°50' W 008°05'2 2.9
2014-Oct-17 08:31N 36°50' W 008°03'3 3.1
2014-Oct-17 07:33N 36°51' W 007°59'3 3.0
2014-Oct-17 06:30N 36°52' W 007°55'6 1.2
2014-Oct-17 01:32N 36°49' W 008°02'4 0.5
2014-Oct-16 16:33N 36°49' W 008°07'1 1.3
2014-Oct-16 15:30N 36°49' W 008°08'4 3.0
2014-Oct-16 14:05N 36°50' W 008°03'3 0.6
2014-Oct-16 09:31N 36°53' W 008°05'2 2.5
2014-Oct-16 08:33N 36°51' W 008°03'3 3.0
2014-Oct-16 07:32N 36°51' W 007°60'11 2.6
2014-Oct-16 03:29N 36°50' W 008°13'2 2.2
2014-Oct-16 02:33N 36°50' W 008°15'3 3.0
2014-Oct-16 01:31N 36°51' W 008°19'3 2.9
2014-Oct-16 00:33N 36°52' W 008°22'3 2.9
2014-Oct-15 23:34N 36°53' W 008°26'3 3.1
2014-Oct-15 22:34N 36°54' W 008°30'10 9.6
2014-Oct-15 21:33N 37°03' W 008°31'5 4.6
2014-Oct-15 20:31N 37°08' W 008°32'0 0.0
2014-Oct-15 19:31N 37°08' W 008°32'0 0.0
2014-Oct-15 18:31N 37°08' W 008°32'0 0.1
2014-Oct-15 17:25N 37°08' W 008°32'0 0.0
2014-Oct-15 16:28N 37°08' W 008°32'0 0.0
2014-Oct-15 15:27N 37°08' W 008°32'8 9.2
2014-Oct-15 14:33N 36°60' W 008°32'9 9.4
2014-Oct-15 13:33N 36°50' W 008°35'2 2.3
2014-Oct-15 12:33N 36°51' W 008°37'3 2.8
2014-Oct-15 11:33N 36°51' W 008°41'3 2.3
2014-Oct-15 10:28N 36°52' W 008°44'1 0.7
2014-Oct-15 09:34N 36°52' W 008°44'3 2.8
2014-Oct-15 08:33N 36°51' W 008°41'3 2.2
2014-Oct-15 07:09N 36°51' W 008°37'2 2.9
2014-Oct-15 06:34N 36°51' W 008°35'4 4.1
2014-Oct-15 05:32N 36°52' W 008°29'9 9.1
2014-Oct-15 04:32N 36°53' W 008°18'10 9.8
2014-Oct-15 03:33N 36°54' W 008°06'14 9.8
2014-Oct-15 02:05N 36°56' W 007°48'  
2014-Oct-12 14:29N 36°49' W 008°09'2 2.2
2014-Oct-12 13:33N 36°49' W 008°11'3 3.0
2014-Oct-12 12:26N 36°50' W 008°15'4 3.0
2014-Oct-12 11:12N 36°50' W 008°20'2 3.0
2014-Oct-12 10:32N 36°50' W 008°22'1 0.9
2014-Oct-12 09:23N 36°49' W 008°22'2 2.9
2014-Oct-12 08:33N 36°49' W 008°19'3 2.9
2014-Oct-12 07:32N 36°49' W 008°15'3 3.0
2014-Oct-12 06:33N 36°49' W 008°11'7 3.7
2014-Oct-12 04:33N 36°51' W 008°20'5 4.7
2014-Oct-12 03:34N 36°52' W 008°26'3 3.2
2014-Oct-12 02:33N 36°51' W 008°22'3 3.2
2014-Oct-12 01:34N 36°50' W 008°18'3 3.1
2014-Oct-12 00:33N 36°50' W 008°14'2 2.3
2014-Oct-11 23:33N 36°50' W 008°12'4 3.0
2014-Oct-11 22:20N 36°50' W 008°16'3 3.1
2014-Oct-11 21:27N 36°51' W 008°20'3 2.9
2014-Oct-11 20:25N 36°52' W 008°23'3 3.0
2014-Oct-11 19:33N 36°53' W 008°26'3 3.0
2014-Oct-11 18:31N 36°55' W 008°29'1 0.7
2014-Oct-11 17:33N 36°54' W 008°30'3 3.0
2014-Oct-11 16:34N 36°52' W 008°33'3 2.7
2014-Oct-11 15:31N 36°50' W 008°35'1 0.9
2014-Oct-11 14:34N 36°50' W 008°36'6 2.9
2014-Oct-11 12:33N 36°51' W 008°43'2 1.7
2014-Oct-11 11:16N 36°51' W 008°46'2 1.8
2014-Oct-11 10:22N 36°52' W 008°44'2 2.7
2014-Oct-11 09:32N 36°51' W 008°41'3 2.9
2014-Oct-11 08:33N 36°52' W 008°38'3 2.6
2014-Oct-11 07:33N 36°50' W 008°36'6 4.6
2014-Oct-11 06:16N 36°52' W 008°29'3 3.8
2014-Oct-11 05:33N 36°52' W 008°26'3 3.0
2014-Oct-11 04:33N 36°51' W 008°22'3 3.0
2014-Oct-11 03:33N 36°51' W 008°19'3 2.8
2014-Oct-11 02:27N 36°52' W 008°22'3 2.9
2014-Oct-11 01:33N 36°53' W 008°25'3 3.0
2014-Oct-11 00:33N 36°54' W 008°28'1 0.7
2014-Oct-10 23:33N 36°54' W 008°28'3 2.9
2014-Oct-10 22:34N 36°53' W 008°24'2 2.1
2014-Oct-10 21:34N 36°53' W 008°21'3 3.0
2014-Oct-10 20:33N 36°53' W 008°25'3 2.9
2014-Oct-10 19:31N 36°54' W 008°29'5 5.7
2014-Oct-10 18:33N 36°51' W 008°35'3 2.6
2014-Oct-10 17:31N 36°51' W 008°38'3 2.8
2014-Oct-10 16:33N 36°51' W 008°42'2 1.6
2014-Oct-10 15:33N 36°51' W 008°44'3 2.9
2014-Oct-10 14:34N 36°51' W 008°40'2 2.2
2014-Oct-10 13:32N 36°53' W 008°38'2 1.9
2014-Oct-10 12:33N 36°51' W 008°40'3 2.8
2014-Oct-10 11:33N 36°51' W 008°43'2 1.6
2014-Oct-10 10:32N 36°53' W 008°44'2 1.6
2014-Oct-10 09:33N 36°51' W 008°43'4 2.7
2014-Oct-10 08:11N 36°52' W 008°38'2 2.7
2014-Oct-10 07:22N 36°50' W 008°37'2 2.8
2014-Oct-10 06:34N 36°51' W 008°34'2 1.5
2014-Oct-10 05:29N 36°52' W 008°33'4 3.8
2014-Oct-10 04:33N 36°55' W 008°32'9 8.8
2014-Oct-10 03:33N 37°04' W 008°32'4 3.4
2014-Oct-10 02:27N 37°08' W 008°32'0 0.0
2014-Oct-10 01:27N 37°08' W 008°32'0 0.0
2014-Oct-10 00:30N 37°08' W 008°32'0 0.0
2014-Oct-09 23:26N 37°08' W 008°32'0 0.0
2014-Oct-09 22:20N 37°08' W 008°32'0 0.0
2014-Oct-09 21:32N 37°08' W 008°32'0 0.1
2014-Oct-09 20:23N 37°08' W 008°32'0 0.0
2014-Oct-09 19:33N 37°08' W 008°32'9 9.2
2014-Oct-09 18:33N 36°59' W 008°35'9 9.2
2014-Oct-09 17:31N 36°51' W 008°41'2 2.0
2014-Oct-09 16:33N 36°51' W 008°39'3 2.8
2014-Oct-09 15:34N 36°51' W 008°35'1 1.0
2014-Oct-09 14:34N 36°51' W 008°34'2 2.3
2014-Oct-09 13:33N 36°51' W 008°37'2 2.2
2014-Oct-09 12:34N 36°52' W 008°39'3 2.7
2014-Oct-09 11:33N 36°51' W 008°42'1 1.3
2014-Oct-09 10:32N 36°51' W 008°44'2 2.2
2014-Oct-09 09:34N 36°51' W 008°41'3 2.7
2014-Oct-09 08:34N 36°52' W 008°38'  

Dump ship's entire track history